createdAt,value
2022-10-02T10:02:51.222Z,73.60
2022-10-02T10:05:27.190Z,73.20
2022-10-02T10:08:07.128Z,71.60
2022-10-02T10:10:41.643Z,69.70
2022-10-02T10:13:27.320Z,68.40
2022-10-02T10:16:19.210Z,67.50
2022-10-02T10:19:04.657Z,66.90
2022-10-02T10:21:45.651Z,68.10
2022-10-02T10:24:31.375Z,68.30
2022-10-02T10:27:16.970Z,68.50
2022-10-02T10:29:53.984Z,67.80
2022-10-02T10:32:35.984Z,66.40
2022-10-02T10:35:12.207Z,66.20
2022-10-02T10:38:12.016Z,65.90
2022-10-02T10:41:11.291Z,64.70
2022-10-02T10:44:02.438Z,65.90
2022-10-02T10:46:51.173Z,67.10
2022-10-02T10:49:37.914Z,67.30
2022-10-02T10:52:16.245Z,64.90
2022-10-02T10:54:48.567Z,63.00
2022-10-02T10:57:18.117Z,61.70
2022-10-02T10:59:48.408Z,61.40
2022-10-02T18:24:12.991Z,66.00
2022-10-02T18:26:49.625Z,66.00
2022-10-02T18:29:32.621Z,65.60
2022-10-02T18:31:59.815Z,65.50
2022-10-02T18:34:45.689Z,65.90
2022-10-02T18:37:32.275Z,66.50
2022-10-02T18:40:07.348Z,66.70
2022-10-02T18:42:48.801Z,66.90
2022-10-02T18:45:34.463Z,67.00
2022-10-02T18:48:19.702Z,67.10
2022-10-02T18:51:09.881Z,67.30
2022-10-02T18:53:43.311Z,67.30
2022-10-02T18:56:12.270Z,67.80
2022-10-02T18:58:47.228Z,68.20
2022-10-02T19:01:20.107Z,68.40
2022-10-02T19:03:51.155Z,68.70
2022-10-02T19:06:20.462Z,69.00
2022-10-02T19:09:06.676Z,68.80
2022-10-02T19:11:36.245Z,68.90
2022-10-02T19:14:14.183Z,69.00
2022-10-02T19:16:54.805Z,69.40
2022-10-02T19:19:24.477Z,69.70
2022-10-02T19:21:56.034Z,69.40
2022-10-02T20:01:30.865Z,71.30
2022-10-02T20:03:59.001Z,71.40
2022-10-02T20:06:27.915Z,71.50
2022-10-02T20:09:00.847Z,71.50
2022-10-02T20:11:47.832Z,71.50
2022-10-02T20:14:23.132Z,71.70
2022-10-02T20:17:08.710Z,71.80
2022-10-02T20:19:39.273Z,71.80
2022-10-02T20:22:13.433Z,71.90
2022-10-02T20:24:44.326Z,72.00
2022-10-02T20:27:13.114Z,72.10
2022-10-02T20:29:46.751Z,72.20
2022-10-02T20:32:18.229Z,72.30
2022-10-02T20:34:53.427Z,72.40
2022-10-02T20:37:26.306Z,72.50
2022-10-02T20:40:00.020Z,72.60
2022-10-02T20:42:36.018Z,72.60
2022-10-02T20:45:02.799Z,72.70
2022-10-02T20:47:29.550Z,72.70
2022-10-02T20:50:15.800Z,72.80
2022-10-02T20:52:42.534Z,73.00
2022-10-02T20:55:44.579Z,73.20
2022-10-02T20:58:29.655Z,73.20
2022-10-02T21:00:59.147Z,73.10
2022-10-02T21:03:30.940Z,73.20
2022-10-02T21:06:12.984Z,73.30
2022-10-02T21:08:48.829Z,73.40
2022-10-02T21:11:21.829Z,73.40
2022-10-02T21:13:51.630Z,73.40
2022-10-02T21:16:29.898Z,73.50
2022-10-02T21:19:04.455Z,73.70
2022-10-02T21:21:41.578Z,74.00
2022-10-02T21:24:17.467Z,74.10
2022-10-02T21:27:02.313Z,74.10
2022-10-02T21:29:44.000Z,74.30
2022-10-02T21:32:29.629Z,74.30
2022-10-02T21:35:34.194Z,74.50
2022-10-02T21:38:19.841Z,74.60
2022-10-02T21:41:22.036Z,74.70
2022-10-02T21:43:48.716Z,74.90
2022-10-02T21:46:22.125Z,75.00
2022-10-02T21:48:52.056Z,75.20
2022-10-02T21:51:38.298Z,75.30
2022-10-02T21:54:23.975Z,75.40
2022-10-02T21:57:05.725Z,75.40
2022-10-02T21:59:41.337Z,75.40
2022-10-02T22:02:19.500Z,75.30
2022-10-02T22:04:55.425Z,75.40
2022-10-02T22:07:31.805Z,75.40
2022-10-02T22:09:58.540Z,75.40
2022-10-02T22:12:43.967Z,75.50
2022-10-02T22:15:25.283Z,75.50
2022-10-02T22:17:51.986Z,75.50
2022-10-02T22:20:18.689Z,75.50
2022-10-02T22:23:03.430Z,75.50
2022-10-02T22:25:42.032Z,75.50
2022-10-02T22:28:14.444Z,75.60
2022-10-02T22:30:50.972Z,75.60
2022-10-02T22:33:38.769Z,75.70
2022-10-02T22:36:06.247Z,75.80
2022-10-02T22:38:38.006Z,75.80
2022-10-02T22:41:07.288Z,75.80
2022-10-02T22:43:47.246Z,75.90
2022-10-02T22:46:36.671Z,75.90
2022-10-02T22:49:13.251Z,76.00
2022-10-02T22:51:43.150Z,76.00
2022-10-02T22:54:13.478Z,76.20
2022-10-02T22:56:43.533Z,76.20
2022-10-02T22:59:19.984Z,76.30
2022-10-02T23:01:50.894Z,76.30
2022-10-02T23:04:18.288Z,76.40
2022-10-02T23:07:05.944Z,76.60
2022-10-02T23:10:02.204Z,76.70
2022-10-02T23:12:39.914Z,76.80
2022-10-02T23:15:29.732Z,76.80
2022-10-02T23:18:02.178Z,76.90
2022-10-02T23:20:33.375Z,76.90
2022-10-02T23:23:28.743Z,77.10
2022-10-02T23:25:58.090Z,77.30
2022-10-02T23:28:28.658Z,77.60
2022-10-02T23:31:13.441Z,77.80
2022-10-02T23:33:51.158Z,77.80
2022-10-02T23:36:22.781Z,77.80
2022-10-02T23:38:53.919Z,77.90
2022-10-02T23:41:40.595Z,77.90
2022-10-02T23:44:11.106Z,78.00
2022-10-02T23:47:00.091Z,78.00
2022-10-02T23:49:32.117Z,78.10
2022-10-02T23:52:31.549Z,78.20
2022-10-02T23:55:17.196Z,78.30
2022-10-02T23:58:12.596Z,78.30
